Time;durP1;ratioP1;P1;durP2;ratioP2;P2;SDS_P1;SDS_P2;PMS_P1;PMS_P2;Temp;Humidity;BMP_temperature;BMP_pressure;BME280_temperature;BME280_humidity;BME280_pressure;Samples;Min_cycle;Max_cycle;Signal;HPM_P1;HPM_P2
2022/10/30 00:00:28;;;;;;;;;;;13.30;99.90;;;;;;5016730;28;19909;-72
2022/10/30 00:02:54;;;;;;;;;;;13.30;99.90;;;;;;5033997;28;19932;-71
2022/10/30 00:05:20;;;;;;;;;;;13.30;99.90;;;;;;5019881;28;19916;-71
2022/10/30 00:07:46;;;;;;;;;;;13.30;99.90;;;;;;5020530;28;19916;-72
2022/10/30 00:10:11;;;;;;;;;;;13.30;99.90;;;;;;5020267;28;19909;-71
2022/10/30 00:12:37;;;;;;;;;;;13.30;99.90;;;;;;5020267;28;19909;-72
2022/10/30 00:15:02;;;;;;;;;;;13.30;99.90;;;;;;5020857;28;20440;-71
2022/10/30 00:17:28;;;;;;;;;;;13.30;99.90;;;;;;5020634;28;19909;-72
2022/10/30 00:19:53;;;;;;;;;;;13.30;99.90;;;;;;5020278;28;19957;-71
2022/10/30 00:22:19;;;;;;;;;;;13.30;99.90;;;;;;5003529;28;19976;-71
2022/10/30 00:24:44;;;;;;;;;;;13.30;99.90;;;;;;5037924;28;19996;-71
2022/10/30 00:27:10;;;;;;;;;;;13.30;99.90;;;;;;5003881;28;19916;-71
2022/10/30 00:29:35;;;;;;;;;;;13.30;99.90;;;;;;5037556;28;20004;-71
2022/10/30 00:32:01;;;;;;;;;;;13.30;99.90;;;;;;5037632;28;19916;-72
2022/10/30 00:34:26;;;;;;;;;;;13.40;99.90;;;;;;5020050;28;20417;-71
2022/10/30 00:36:52;;;;;;;;;;;13.40;99.90;;;;;;5019542;28;20414;-72
2022/10/30 00:39:17;;;;;;;;;;;13.40;99.90;;;;;;5019844;28;20302;-72
2022/10/30 00:41:43;;;;;;;;;;;13.50;99.90;;;;;;5037638;28;19913;-72
2022/10/30 00:44:28;;;;;;;;;;;13.50;99.90;;;;;;5037182;28;20011;-72
2022/10/30 00:46:54;;;;;;;;;;;13.50;99.90;;;;;;5019612;28;19909;-72
2022/10/30 00:49:19;;;;;;;;;;;13.50;99.90;;;;;;5019897;28;19932;-72
2022/10/30 00:51:48;;;;;;;;;;;13.50;99.90;;;;;;5003223;28;19909;-72
2022/10/30 00:54:15;;;;;;;;;;;13.50;99.90;;;;;;5002797;28;19956;-71
2022/10/30 00:56:41;;;;;;;;;;;13.50;99.90;;;;;;5036969;28;20363;-72
2022/10/30 00:59:08;;;;;;;;;;;13.50;99.90;;;;;;5019214;28;19963;-72
2022/10/30 01:01:35;;;;;;;;;;;13.50;99.90;;;;;;5019564;28;19920;-71
2022/10/30 01:04:02;;;;;;;;;;;13.50;99.90;;;;;;5036968;28;19924;-71
2022/10/30 01:06:28;;;;;;;;;;;13.50;99.90;;;;;;5036782;28;19909;-71
2022/10/30 01:08:54;;;;;;;;;;;13.50;99.90;;;;;;5002732;28;20322;-71
2022/10/30 01:11:19;;;;;;;;;;;13.50;99.90;;;;;;5019164;28;20390;-72
2022/10/30 01:13:46;;;;;;;;;;;13.50;99.90;;;;;;5019875;28;20011;-72
2022/10/30 01:16:28;;;;;;;;;;;13.50;99.90;;;;;;5036546;28;19916;-72
2022/10/30 01:19:04;;;;;;;;;;;13.50;99.90;;;;;;5019354;28;20355;-71
2022/10/30 01:21:39;;;;;;;;;;;13.50;99.90;;;;;;5036499;28;19963;-72
2022/10/30 01:27:03;;;;;;;;;;;13.40;99.90;;;;;;5066302;22;19925;-73
2022/10/30 01:29:42;;;;;;;;;;;13.40;99.90;;;;;;5033281;28;20011;-73
2022/10/30 01:32:27;;;;;;;;;;;13.30;99.90;;;;;;5050902;28;20289;-73
2022/10/30 01:37:36;;;;;;;;;;;13.20;99.90;;;;;;5091283;27;19919;-71
2022/10/30 01:40:03;;;;;;;;;;;13.20;99.90;;;;;;5089976;28;20393;-70
2022/10/30 01:42:49;;;;;;;;;;;13.10;99.90;;;;;;5091167;28;19909;-71
2022/10/30 01:45:17;;;;;;;;;;;13.10;99.90;;;;;;5091000;28;19994;-71
2022/10/30 01:47:49;;;;;;;;;;;13.00;99.90;;;;;;5091040;28;19999;-71
2022/10/30 01:50:21;;;;;;;;;;;13.00;99.90;;;;;;5090995;28;19909;-71
2022/10/30 01:53:07;;;;;;;;;;;13.00;99.90;;;;;;5090938;28;20376;-71
2022/10/30 01:55:36;;;;;;;;;;;13.00;99.90;;;;;;5090881;28;20392;-71
2022/10/30 01:58:06;;;;;;;;;;;12.90;99.90;;;;;;5091069;28;19909;-71
2022/10/30 02:00:31;;;;;;;;;;;12.90;99.90;;;;;;5089579;28;19908;-71
2022/10/30 02:02:56;;;;;;;;;;;12.80;99.90;;;;;;5090776;28;19932;-71
2022/10/30 02:05:35;;;;;;;;;;;12.80;99.90;;;;;;5090692;28;19908;-71
2022/10/30 02:08:00;;;;;;;;;;;12.80;99.90;;;;;;5090760;28;20365;-71
2022/10/30 02:10:26;;;;;;;;;;;12.70;99.90;;;;;;5089352;28;19908;-71
2022/10/30 02:12:52;;;;;;;;;;;12.60;99.90;;;;;;5090577;28;19952;-71
2022/10/30 02:15:17;;;;;;;;;;;12.60;99.90;;;;;;5123237;28;19931;-71
2022/10/30 02:17:43;;;;;;;;;;;12.60;99.90;;;;;;5090489;28;19935;-71
2022/10/30 02:20:16;;;;;;;;;;;12.60;99.90;;;;;;5090407;28;20266;-71
2022/10/30 02:22:42;;;;;;;;;;;12.50;99.90;;;;;;5090384;28;20365;-71
2022/10/30 02:25:08;;;;;;;;;;;12.50;99.90;;;;;;5090357;28;19908;-71
2022/10/30 02:27:33;;;;;;;;;;;12.50;99.90;;;;;;5090334;28;19913;-71
2022/10/30 02:29:59;;;;;;;;;;;12.50;99.90;;;;;;5090214;28;19958;-70
2022/10/30 02:32:24;;;;;;;;;;;12.50;99.90;;;;;;5090236;28;19952;-71
2022/10/30 02:34:50;;;;;;;;;;;12.40;99.90;;;;;;5122919;28;19909;-71
2022/10/30 02:37:15;;;;;;;;;;;12.50;99.90;;;;;;5108324;28;19973;-71
2022/10/30 02:39:41;;;;;;;;;;;12.40;99.90;;;;;;5092295;28;19912;-71
2022/10/30 02:42:06;;;;;;;;;;;12.40;99.90;;;;;;5110292;28;19915;-71
2022/10/30 02:44:32;;;;;;;;;;;12.40;99.90;;;;;;5092114;28;19908;-71
2022/10/30 02:46:57;;;;;;;;;;;12.40;99.90;;;;;;5107620;28;20415;-71
2022/10/30 02:49:23;;;;;;;;;;;12.40;99.90;;;;;;5096611;28;19920;-71
2022/10/30 02:51:48;;;;;;;;;;;12.40;99.90;;;;;;5096618;28;19908;-71
2022/10/30 02:54:13;;;;;;;;;;;12.40;99.90;;;;;;5096556;28;19999;-71
2022/10/30 02:56:39;;;;;;;;;;;12.30;99.90;;;;;;5096497;28;19919;-71
2022/10/30 02:59:05;;;;;;;;;;;12.30;99.90;;;;;;5096448;28;19908;-70
2022/10/30 03:01:30;;;;;;;;;;;12.20;99.90;;;;;;5078195;28;20343;-70
2022/10/30 03:03:56;;;;;;;;;;;12.20;99.90;;;;;;5061526;28;20365;-71
2022/10/30 03:06:21;;;;;;;;;;;12.20;99.90;;;;;;5096322;28;19930;-71
2022/10/30 03:08:47;;;;;;;;;;;12.20;99.90;;;;;;5096281;28;20330;-71
2022/10/30 03:11:15;;;;;;;;;;;12.10;99.90;;;;;;5096226;28;19999;-70
2022/10/30 03:13:41;;;;;;;;;;;12.10;99.90;;;;;;5078164;28;19908;-70
2022/10/30 03:16:07;;;;;;;;;;;12.00;99.90;;;;;;5095991;28;19966;-70
2022/10/30 03:18:33;;;;;;;;;;;12.00;99.90;;;;;;5077985;28;19967;-71
2022/10/30 03:21:00;;;;;;;;;;;12.00;99.90;;;;;;5095995;28;20286;-70
2022/10/30 03:23:26;;;;;;;;;;;12.00;99.90;;;;;;5077923;28;19909;-70
2022/10/30 03:25:53;;;;;;;;;;;12.00;99.90;;;;;;5095963;28;19908;-71
2022/10/30 03:28:19;;;;;;;;;;;12.00;99.90;;;;;;5077883;28;19908;-70
2022/10/30 03:30:44;;;;;;;;;;;12.00;99.90;;;;;;5077678;28;19909;-70
2022/10/30 03:33:09;;;;;;;;;;;12.00;99.90;;;;;;5095771;28;20375;-70
2022/10/30 03:35:35;;;;;;;;;;;12.00;99.90;;;;;;5077511;28;19924;-70
2022/10/30 03:38:00;;;;;;;;;;;12.00;99.90;;;;;;5077537;28;19908;-70
2022/10/30 03:40:26;;;;;;;;;;;11.90;99.90;;;;;;5095634;28;19909;-71
2022/10/30 03:42:51;;;;;;;;;;;11.90;99.90;;;;;;5095599;28;20396;-70
2022/10/30 03:45:17;;;;;;;;;;;11.80;99.90;;;;;;5095541;28;20358;-70
2022/10/30 03:47:42;;;;;;;;;;;11.80;99.90;;;;;;5077417;28;19969;-70
2022/10/30 03:50:08;;;;;;;;;;;11.70;99.90;;;;;;5077381;28;19981;-70
2022/10/30 03:52:33;;;;;;;;;;;11.70;99.90;;;;;;5060635;28;19919;-70
2022/10/30 03:54:58;;;;;;;;;;;11.70;99.90;;;;;;5095416;28;19908;-71
2022/10/30 03:57:24;;;;;;;;;;;11.60;99.90;;;;;;5095268;28;19960;-70
2022/10/30 03:59:49;;;;;;;;;;;11.60;99.90;;;;;;5094294;28;19908;-70
2022/10/30 04:02:15;;;;;;;;;;;11.50;99.90;;;;;;5095211;28;19950;-70
2022/10/30 04:04:41;;;;;;;;;;;11.50;99.90;;;;;;5095138;28;20371;-71
2022/10/30 04:07:06;;;;;;;;;;;11.50;99.90;;;;;;5095109;28;19908;-70
2022/10/30 04:09:32;;;;;;;;;;;11.40;99.90;;;;;;5095133;28;19915;-70
2022/10/30 04:11:57;;;;;;;;;;;11.40;99.90;;;;;;5095118;28;19908;-70
2022/10/30 04:14:22;;;;;;;;;;;11.30;99.90;;;;;;5095026;28;19912;-71
2022/10/30 04:16:48;;;;;;;;;;;11.30;99.90;;;;;;5094879;28;20003;-70
2022/10/30 04:19:13;;;;;;;;;;;11.30;99.90;;;;;;5094925;28;19908;-70
2022/10/30 04:21:41;;;;;;;;;;;11.30;99.90;;;;;;5076752;28;19908;-70
2022/10/30 04:24:07;;;;;;;;;;;11.20;99.90;;;;;;5094818;28;20285;-70
2022/10/30 04:26:32;;;;;;;;;;;11.20;99.90;;;;;;5094863;28;19908;-70
2022/10/30 04:28:58;;;;;;;;;;;11.10;99.90;;;;;;5094739;28;19908;-71
2022/10/30 04:31:23;;;;;;;;;;;11.10;99.90;;;;;;5094666;28;19912;-70
2022/10/30 04:33:49;;;;;;;;;;;11.00;99.90;;;;;;5076536;28;19915;-70
2022/10/30 04:36:16;;;;;;;;;;;11.00;99.90;;;;;;5094283;28;19926;-70
2022/10/30 04:38:42;;;;;;;;;;;10.90;99.90;;;;;;5094550;28;19908;-70
2022/10/30 04:41:07;;;;;;;;;;;10.90;99.90;;;;;;5076452;28;19908;-70
2022/10/30 04:43:33;;;;;;;;;;;10.90;99.90;;;;;;5094474;28;19934;-70
2022/10/30 04:45:58;;;;;;;;;;;10.90;99.90;;;;;;5094505;28;19908;-70
2022/10/30 04:48:24;;;;;;;;;;;10.90;99.90;;;;;;5076315;28;19908;-70
2022/10/30 04:50:49;;;;;;;;;;;10.80;99.90;;;;;;5076134;28;20385;-70
2022/10/30 04:53:16;;;;;;;;;;;10.80;99.90;;;;;;5094255;28;19908;-70
2022/10/30 04:55:42;;;;;;;;;;;10.80;99.90;;;;;;5076173;28;20326;-70
2022/10/30 04:58:09;;;;;;;;;;;10.80;99.90;;;;;;5094182;28;19908;-70
2022/10/30 05:00:34;;;;;;;;;;;10.70;99.90;;;;;;5094230;28;20329;-70
2022/10/30 05:03:00;;;;;;;;;;;10.70;99.90;;;;;;5094168;28;19960;-70
2022/10/30 05:05:26;;;;;;;;;;;10.70;99.90;;;;;;5094142;28;19951;-70
2022/10/30 05:07:52;;;;;;;;;;;10.60;99.90;;;;;;5094044;28;19908;-70
2022/10/30 05:10:17;;;;;;;;;;;10.60;99.90;;;;;;5093702;28;19916;-70
2022/10/30 05:12:43;;;;;;;;;;;10.50;99.90;;;;;;5094027;28;19912;-70
2022/10/30 05:15:09;;;;;;;;;;;10.50;99.90;;;;;;5075898;28;19908;-70
2022/10/30 05:17:34;;;;;;;;;;;10.50;99.90;;;;;;5093855;28;20281;-70
2022/10/30 05:20:00;;;;;;;;;;;10.50;99.90;;;;;;5093929;28;19908;-70
2022/10/30 05:22:25;;;;;;;;;;;10.50;99.90;;;;;;5075865;28;19912;-70
2022/10/30 05:24:51;;;;;;;;;;;10.40;99.90;;;;;;5093828;28;19961;-70
2022/10/30 05:27:16;;;;;;;;;;;10.40;99.90;;;;;;5093788;28;19957;-70
2022/10/30 05:29:42;;;;;;;;;;;10.30;99.90;;;;;;5093832;28;20358;-69
2022/10/30 05:32:07;;;;;;;;;;;10.30;99.90;;;;;;5075856;28;20275;-70
2022/10/30 05:34:32;;;;;;;;;;;10.30;99.90;;;;;;5075731;28;19935;-70
2022/10/30 05:36:58;;;;;;;;;;;10.30;99.90;;;;;;5093459;28;19986;-70
2022/10/30 05:39:23;;;;;;;;;;;10.20;99.90;;;;;;5093678;28;19912;-70
2022/10/30 05:41:49;;;;;;;;;;;10.20;99.90;;;;;;5093635;28;19908;-70
2022/10/30 05:44:14;;;;;;;;;;;10.20;99.90;;;;;;5075582;28;19931;-70
2022/10/30 05:46:41;;;;;;;;;;;10.10;99.90;;;;;;5093651;28;19910;-70
2022/10/30 05:49:06;;;;;;;;;;;10.10;99.90;;;;;;5075549;28;19908;-70
2022/10/30 05:51:32;;;;;;;;;;;10.10;99.90;;;;;;5093870;28;19908;-69
2022/10/30 05:53:57;;;;;;;;;;;10.10;99.90;;;;;;5075455;28;19908;-70
2022/10/30 05:56:23;;;;;;;;;;;10.10;99.90;;;;;;5075473;28;19916;-70
2022/10/30 05:58:49;;;;;;;;;;;10.00;99.90;;;;;;5093553;28;19969;-70
2022/10/30 06:01:14;;;;;;;;;;;10.00;99.90;;;;;;5093483;28;19908;-70
2022/10/30 06:03:40;;;;;;;;;;;10.00;99.90;;;;;;5093501;28;20393;-69
2022/10/30 06:06:05;;;;;;;;;;;10.00;99.90;;;;;;5093404;28;19990;-69
2022/10/30 06:08:31;;;;;;;;;;;10.00;99.90;;;;;;5075362;28;20403;-70
2022/10/30 06:10:56;;;;;;;;;;;9.90;99.90;;;;;;5093376;28;19915;-70
2022/10/30 06:13:21;;;;;;;;;;;9.80;99.90;;;;;;5075289;28;19908;-70
2022/10/30 06:15:47;;;;;;;;;;;9.90;99.90;;;;;;5093290;28;19939;-70
2022/10/30 06:18:13;;;;;;;;;;;9.90;99.90;;;;;;5093357;28;20023;-69
2022/10/30 06:20:38;;;;;;;;;;;9.90;99.90;;;;;;5093303;28;20393;-70
2022/10/30 06:23:05;;;;;;;;;;;9.90;99.90;;;;;;5076923;28;19908;-70
2022/10/30 06:25:32;;;;;;;;;;;9.90;99.90;;;;;;5097106;28;20392;-70
2022/10/30 06:27:57;;;;;;;;;;;9.90;99.90;;;;;;5097085;28;19908;-70
2022/10/30 06:30:23;;;;;;;;;;;10.00;99.90;;;;;;5096954;28;19918;-70
2022/10/30 06:32:49;;;;;;;;;;;10.00;99.90;;;;;;5096963;28;20305;-70
2022/10/30 06:35:15;;;;;;;;;;;10.10;99.90;;;;;;5096648;28;19931;-70
2022/10/30 06:37:45;;;;;;;;;;;10.20;99.90;;;;;;5096855;28;20287;-70
2022/10/30 06:40:10;;;;;;;;;;;10.30;99.90;;;;;;5096910;28;19908;-70
2022/10/30 06:42:51;;;;;;;;;;;10.40;99.90;;;;;;5096801;28;19915;-70
2022/10/30 06:45:18;;;;;;;;;;;10.50;99.90;;;;;;5096753;28;20297;-70
2022/10/30 06:47:43;;;;;;;;;;;10.70;99.90;;;;;;5096727;28;19915;-70
2022/10/30 06:50:10;;;;;;;;;;;10.90;99.90;;;;;;5096681;28;19908;-70
2022/10/30 06:52:36;;;;;;;;;;;11.20;99.90;;;;;;5096587;28;19995;-70
2022/10/30 06:55:01;;;;;;;;;;;11.50;99.90;;;;;;5096572;28;20434;-70
2022/10/30 06:57:27;;;;;;;;;;;11.70;99.90;;;;;;5096434;28;19919;-70
2022/10/30 06:59:52;;;;;;;;;;;11.80;99.90;;;;;;5096479;28;20262;-70
2022/10/30 07:02:18;;;;;;;;;;;11.90;99.90;;;;;;5078366;28;19959;-70
2022/10/30 07:04:44;;;;;;;;;;;12.00;99.90;;;;;;5096401;28;19912;-70
2022/10/30 07:07:10;;;;;;;;;;;12.00;99.90;;;;;;5096303;28;19991;-70
2022/10/30 07:09:35;;;;;;;;;;;12.10;99.90;;;;;;5096365;28;19954;-70
2022/10/30 07:12:01;;;;;;;;;;;12.30;99.90;;;;;;5096250;28;19974;-70
2022/10/30 07:14:26;;;;;;;;;;;12.70;99.90;;;;;;5078052;28;19908;-71
2022/10/30 07:16:53;;;;;;;;;;;13.20;99.90;;;;;;5096077;28;19960;-71
2022/10/30 07:19:19;;;;;;;;;;;13.70;99.90;;;;;;5077977;28;19908;-71
2022/10/30 07:21:44;;;;;;;;;;;14.50;99.90;;;;;;5096001;28;19915;-71
2022/10/30 07:24:09;;;;;;;;;;;15.20;99.90;;;;;;5095992;28;19961;-72
2022/10/30 07:26:37;;;;;;;;;;;16.10;99.90;;;;;;5095917;28;19957;-71
2022/10/30 07:29:02;;;;;;;;;;;16.40;99.90;;;;;;5077806;28;19933;-71
2022/10/30 07:31:28;;;;;;;;;;;16.80;99.90;;;;;;5077702;28;19908;-72
2022/10/30 07:33:54;;;;;;;;;;;17.40;99.90;;;;;;5095675;28;19919;-72
2022/10/30 07:36:19;;;;;;;;;;;17.80;99.90;;;;;;5077448;28;19925;-72
2022/10/30 07:38:46;;;;;;;;;;;18.40;99.90;;;;;;5077689;28;19969;-72
2022/10/30 07:41:12;;;;;;;;;;;18.90;99.90;;;;;;5077700;28;19917;-72
2022/10/30 07:43:37;;;;;;;;;;;19.30;99.90;;;;;;5095636;28;20016;-72
2022/10/30 07:46:03;;;;;;;;;;;19.60;99.90;;;;;;5095614;28;19915;-72
2022/10/30 07:48:28;;;;;;;;;;;20.00;99.90;;;;;;5077406;28;19914;-72
2022/10/30 07:50:53;;;;;;;;;;;20.00;99.90;;;;;;5095497;28;20434;-72
2022/10/30 07:53:19;;;;;;;;;;;19.90;99.90;;;;;;5077358;28;19908;-72
2022/10/30 07:55:44;;;;;;;;;;;19.70;99.90;;;;;;5077289;28;19964;-72
2022/10/30 07:58:10;;;;;;;;;;;19.70;99.90;;;;;;5095342;28;19909;-72
2022/10/30 08:00:35;;;;;;;;;;;19.90;99.90;;;;;;5095304;28;20006;-72
2022/10/30 08:03:01;;;;;;;;;;;20.40;99.90;;;;;;5095287;28;19915;-72
2022/10/30 08:05:26;;;;;;;;;;;20.60;99.90;;;;;;5095233;28;19909;-72
2022/10/30 08:07:52;;;;;;;;;;;21.00;99.90;;;;;;5095198;28;20049;-72
2022/10/30 08:10:17;;;;;;;;;;;21.30;99.90;;;;;;5095085;28;19908;-72
2022/10/30 08:12:44;;;;;;;;;;;21.40;99.90;;;;;;5095069;28;20297;-72
2022/10/30 08:15:10;;;;;;;;;;;22.30;99.90;;;;;;5077238;28;19912;-72
2022/10/30 08:17:44;;;;;;;;;;;22.40;99.90;;;;;;5094897;28;19912;-72
2022/10/30 08:20:10;;;;;;;;;;;22.10;99.90;;;;;;5094936;28;19964;-72
2022/10/30 08:22:42;;;;;;;;;;;22.10;99.90;;;;;;5076678;28;19999;-71
2022/10/30 08:25:08;;;;;;;;;;;22.10;99.90;;;;;;5076652;28;19908;-72
2022/10/30 08:27:33;;;;;;;;;;;22.20;99.90;;;;;;5076882;28;20389;-72
2022/10/30 08:29:59;;;;;;;;;;;22.30;99.90;;;;;;5060013;28;20283;-72
2022/10/30 08:32:24;;;;;;;;;;;22.00;99.90;;;;;;5094680;28;20278;-72
2022/10/30 08:34:49;;;;;;;;;;;21.80;99.90;;;;;;5094621;28;19912;-72
2022/10/30 08:37:16;;;;;;;;;;;21.60;99.90;;;;;;5076195;28;19978;-72
2022/10/30 08:39:41;;;;;;;;;;;21.80;99.90;;;;;;5094576;28;19915;-72
2022/10/30 08:42:07;;;;;;;;;;;21.80;99.90;;;;;;5094367;28;19908;-72
2022/10/30 08:44:32;;;;;;;;;;;21.70;99.90;;;;;;5076435;28;19959;-72
2022/10/30 08:46:57;;;;;;;;;;;21.80;99.90;;;;;;5093970;28;19915;-72
2022/10/30 08:49:23;;;;;;;;;;;21.90;99.90;;;;;;5076270;28;20006;-72
2022/10/30 08:51:48;;;;;;;;;;;21.90;99.90;;;;;;5076234;28;19908;-72
2022/10/30 08:54:14;;;;;;;;;;;22.60;99.90;;;;;;5076167;28;20362;-72
2022/10/30 08:56:39;;;;;;;;;;;22.70;99.90;;;;;;5094200;28;20018;-72
2022/10/30 08:59:05;;;;;;;;;;;23.10;99.90;;;;;;5094170;28;19908;-71
2022/10/30 09:01:30;;;;;;;;;;;23.90;99.90;;;;;;5076394;28;19908;-72
2022/10/30 09:03:55;;;;;;;;;;;24.30;99.90;;;;;;5094157;28;19915;-72
2022/10/30 09:06:21;;;;;;;;;;;24.40;99.90;;;;;;5075968;28;20366;-73
2022/10/30 09:08:46;;;;;;;;;;;25.00;99.90;;;;;;5094112;28;20326;-72
2022/10/30 09:11:12;;;;;;;;;;;25.70;99.90;;;;;;5094017;28;20316;-72
2022/10/30 09:13:37;;;;;;;;;;;25.00;99.90;;;;;;5093978;28;19914;-72
2022/10/30 09:16:03;;;;;;;;;;;24.40;99.90;;;;;;5093895;28;20117;-73
2022/10/30 09:18:28;;;;;;;;;;;24.10;99.90;;;;;;5093930;28;19915;-72
2022/10/30 09:20:54;;;;;;;;;;;23.90;99.90;;;;;;5093899;28;19958;-72
2022/10/30 09:23:19;;;;;;;;;;;23.70;99.90;;;;;;5093876;28;19915;-72
2022/10/30 09:25:45;;;;;;;;;;;23.70;99.90;;;;;;5093844;28;19953;-72
2022/10/30 09:28:10;;;;;;;;;;;23.90;99.90;;;;;;5093841;28;19930;-73
2022/10/30 09:30:36;;;;;;;;;;;24.60;99.90;;;;;;5093803;28;19982;-72
2022/10/30 09:33:02;;;;;;;;;;;24.80;99.90;;;;;;5093793;28;19931;-73
2022/10/30 09:35:28;;;;;;;;;;;25.50;99.90;;;;;;5093520;28;19924;-72
2022/10/30 09:37:53;;;;;;;;;;;24.90;99.90;;;;;;5093660;28;20332;-72
2022/10/30 09:40:33;;;;;;;;;;;25.30;99.90;;;;;;5093706;28;19908;-72
2022/10/30 09:43:06;;;;;;;;;;;25.90;99.90;;;;;;5093659;28;19999;-73
2022/10/30 09:45:52;;;;;;;;;;;25.50;99.90;;;;;;5093684;28;19930;-72
2022/10/30 09:48:37;;;;;;;;;;;25.20;99.90;;;;;;5093560;28;20357;-72
2022/10/30 09:51:22;;;;;;;;;;;24.90;99.90;;;;;;5093535;28;19908;-73
2022/10/30 09:53:55;;;;;;;;;;;25.60;99.90;;;;;;5093450;28;19912;-72
2022/10/30 09:56:29;;;;;;;;;;;26.40;99.90;;;;;;5093505;28;19918;-72
2022/10/30 09:59:08;;;;;;;;;;;26.90;99.90;;;;;;5096779;28;20373;-72
2022/10/30 10:01:38;;;;;;;;;;;25.90;99.90;;;;;;5097681;28;19908;-73
2022/10/30 10:04:23;;;;;;;;;;;25.80;99.90;;;;;;5097555;28;19970;-73
2022/10/30 10:06:52;;;;;;;;;;;25.30;99.90;;;;;;5097355;28;19908;-73
2022/10/30 10:09:19;;;;;;;;;;;25.90;99.90;;;;;;5097472;28;19948;-72
2022/10/30 10:11:48;;;;;;;;;;;25.60;99.90;;;;;;5079280;28;19915;-72
2022/10/30 10:14:17;;;;;;;;;;;26.00;99.90;;;;;;5097369;28;19966;-72
2022/10/30 10:16:44;;;;;;;;;;;26.70;99.90;;;;;;5079044;28;19956;-72
2022/10/30 10:21:54;;;;;;;;;;;26.90;99.90;;;;;;5091241;27;19918;-72
2022/10/30 10:24:22;;;;;;;;;;;27.40;99.40;;;;;;5089822;28;19943;-71
2022/10/30 10:26:49;;;;;;;;;;;27.50;98.90;;;;;;5091118;28;19909;-71
2022/10/30 10:29:21;;;;;;;;;;;27.20;99.10;;;;;;5089804;28;19909;-72
2022/10/30 10:32:07;;;;;;;;;;;27.60;99.10;;;;;;5091075;28;20273;-72
2022/10/30 10:34:39;;;;;;;;;;;27.90;99.00;;;;;;5090898;28;19995;-72
2022/10/30 10:40:01;;;;;;;;;;;27.50;99.10;;;;;;5091246;27;19912;-72
2022/10/30 10:42:31;;;;;;;;;;;27.40;99.30;;;;;;5106931;28;20406;-73
2022/10/30 10:45:17;;;;;;;;;;;26.90;99.20;;;;;;5091147;28;19918;-73
2022/10/30 10:48:02;;;;;;;;;;;26.80;99.90;;;;;;5091041;28;20355;-73
2022/10/30 10:50:36;;;;;;;;;;;27.00;99.30;;;;;;5091039;28;20409;-73
2022/10/30 10:53:08;;;;;;;;;;;26.60;98.30;;;;;;5091035;28;19909;-72
2022/10/30 10:55:35;;;;;;;;;;;26.40;99.10;;;;;;5089683;28;19912;-73
2022/10/30 10:58:05;;;;;;;;;;;26.60;99.70;;;;;;5090779;28;19919;-73
2022/10/30 11:00:31;;;;;;;;;;;26.50;99.30;;;;;;5090729;28;19954;-73
2022/10/30 11:03:01;;;;;;;;;;;26.60;98.70;;;;;;5090764;28;19912;-72
2022/10/30 11:05:47;;;;;;;;;;;26.50;98.80;;;;;;5089440;28;19912;-72
2022/10/30 11:08:15;;;;;;;;;;;26.90;98.50;;;;;;5090753;28;19924;-73
2022/10/30 11:10:41;;;;;;;;;;;26.40;99.90;;;;;;5090606;28;19908;-72
2022/10/30 11:13:09;;;;;;;;;;;26.00;99.70;;;;;;5089340;28;20389;-72
2022/10/30 11:15:40;;;;;;;;;;;25.90;99.90;;;;;;5089273;28;19909;-72
2022/10/30 11:18:07;;;;;;;;;;;25.60;99.90;;;;;;5090455;28;19962;-73
2022/10/30 11:20:53;;;;;;;;;;;25.40;99.90;;;;;;5123453;28;19908;-72
2022/10/30 11:26:21;;;;;;;;;;;24.40;99.90;;;;;;5091271;27;19912;-71
2022/10/30 11:29:07;;;;;;;;;;;24.10;99.90;;;;;;5091234;28;19919;-72
2022/10/30 11:31:34;;;;;;;;;;;23.80;99.90;;;;;;5091260;28;20402;-72
2022/10/30 11:34:12;;;;;;;;;;;23.80;99.90;;;;;;5123874;28;19962;-72
2022/10/30 11:36:38;;;;;;;;;;;24.00;99.90;;;;;;5091032;28;19909;-72
2022/10/30 11:39:15;;;;;;;;;;;24.10;99.90;;;;;;5090926;28;19908;-72
2022/10/30 11:41:40;;;;;;;;;;;24.20;99.90;;;;;;5123880;28;19932;-72
2022/10/30 11:44:07;;;;;;;;;;;24.00;99.90;;;;;;5090916;28;20381;-72
2022/10/30 11:46:34;;;;;;;;;;;24.00;99.90;;;;;;5090842;28;19912;-72
2022/10/30 11:49:00;;;;;;;;;;;24.10;99.90;;;;;;5090762;28;19913;-72
2022/10/30 11:51:30;;;;;;;;;;;24.20;99.90;;;;;;5089445;28;20255;-72
2022/10/30 11:53:55;;;;;;;;;;;24.20;99.90;;;;;;5090696;28;19915;-72
2022/10/30 11:56:21;;;;;;;;;;;24.20;99.90;;;;;;5090645;28;19908;-72
2022/10/30 11:58:49;;;;;;;;;;;24.20;99.90;;;;;;5089314;28;20295;-72
2022/10/30 12:01:21;;;;;;;;;;;24.20;99.90;;;;;;5090588;28;19993;-72
2022/10/30 12:03:46;;;;;;;;;;;24.10;99.90;;;;;;5090640;28;20388;-72
2022/10/30 12:06:26;;;;;;;;;;;24.10;99.90;;;;;;5090514;28;19912;-72
2022/10/30 12:09:12;;;;;;;;;;;24.10;99.90;;;;;;5090416;28;20354;-72
2022/10/30 12:11:38;;;;;;;;;;;24.10;99.90;;;;;;5090290;28;19909;-72
2022/10/30 12:14:04;;;;;;;;;;;24.20;99.90;;;;;;5089044;28;19908;-72
2022/10/30 12:16:32;;;;;;;;;;;23.80;99.90;;;;;;5090279;28;19917;-72
2022/10/30 12:19:01;;;;;;;;;;;23.80;99.90;;;;;;5090231;28;19912;-72
2022/10/30 12:21:28;;;;;;;;;;;23.70;99.90;;;;;;5122989;28;20289;-72
2022/10/30 12:23:55;;;;;;;;;;;23.50;99.90;;;;;;5091304;28;19908;-72
2022/10/30 12:26:21;;;;;;;;;;;23.50;99.90;;;;;;5110460;28;19908;-72
2022/10/30 12:28:50;;;;;;;;;;;23.50;99.90;;;;;;5110461;28;19908;-71
2022/10/30 12:31:19;;;;;;;;;;;23.50;99.90;;;;;;5092065;28;19931;-72
2022/10/30 12:33:49;;;;;;;;;;;23.50;99.90;;;;;;5110268;28;19909;-72
2022/10/30 12:36:18;;;;;;;;;;;23.50;99.90;;;;;;5103890;28;19966;-71
2022/10/30 12:38:48;;;;;;;;;;;23.50;99.90;;;;;;5096617;28;19908;-71
2022/10/30 12:41:17;;;;;;;;;;;23.60;99.90;;;;;;5096567;28;19947;-72
2022/10/30 12:43:47;;;;;;;;;;;23.70;99.90;;;;;;5096459;28;19919;-72
2022/10/30 12:46:35;;;;;;;;;;;23.80;99.90;;;;;;5096499;28;19923;-72
2022/10/30 12:49:16;;;;;;;;;;;23.80;99.90;;;;;;5096398;28;19908;-72
2022/10/30 12:51:53;;;;;;;;;;;24.00;99.90;;;;;;5078243;28;19908;-72
2022/10/30 12:54:21;;;;;;;;;;;23.80;99.90;;;;;;5096309;28;19908;-72
2022/10/30 12:56:50;;;;;;;;;;;24.00;99.90;;;;;;5096293;28;20297;-73
2022/10/30 12:59:35;;;;;;;;;;;24.10;99.90;;;;;;5096173;28;19997;-72
2022/10/30 13:02:20;;;;;;;;;;;24.10;99.90;;;;;;5096018;28;19955;-72
2022/10/30 13:04:48;;;;;;;;;;;24.00;99.90;;;;;;5095851;28;19943;-72
2022/10/30 13:07:21;;;;;;;;;;;24.10;99.90;;;;;;5096010;28;19916;-72
2022/10/30 13:09:53;;;;;;;;;;;24.10;99.90;;;;;;5078201;28;20316;-72
2022/10/30 13:12:21;;;;;;;;;;;23.90;99.90;;;;;;5096009;28;19978;-72
2022/10/30 13:14:53;;;;;;;;;;;23.80;99.90;;;;;;5077813;28;19908;-72
2022/10/30 13:17:18;;;;;;;;;;;23.80;99.90;;;;;;5095856;28;20323;-72
2022/10/30 13:19:44;;;;;;;;;;;23.80;99.90;;;;;;5095737;28;19915;-72
2022/10/30 13:22:15;;;;;;;;;;;23.70;99.90;;;;;;5077775;28;19908;-72
2022/10/30 13:24:45;;;;;;;;;;;23.60;99.90;;;;;;5095457;28;20405;-72
2022/10/30 13:27:30;;;;;;;;;;;23.40;99.90;;;;;;5095750;28;19908;-72
2022/10/30 13:30:04;;;;;;;;;;;23.40;99.90;;;;;;5095452;28;19915;-72
2022/10/30 13:32:39;;;;;;;;;;;23.50;99.90;;;;;;5095526;28;20366;-72
2022/10/30 13:35:16;;;;;;;;;;;23.40;99.90;;;;;;5095598;28;19908;-72
2022/10/30 13:38:01;;;;;;;;;;;23.30;99.90;;;;;;5095462;28;19908;-72
2022/10/30 13:40:37;;;;;;;;;;;23.40;99.90;;;;;;5095409;28;19908;-72
2022/10/30 13:43:14;;;;;;;;;;;23.30;99.90;;;;;;5095379;28;19952;-72
2022/10/30 13:45:51;;;;;;;;;;;23.30;99.90;;;;;;5095272;28;19962;-71
2022/10/30 13:48:36;;;;;;;;;;;23.20;99.90;;;;;;5094293;28;19908;-72
2022/10/30 13:51:10;;;;;;;;;;;23.30;99.90;;;;;;5094995;28;20381;-72
2022/10/30 13:53:38;;;;;;;;;;;23.30;99.90;;;;;;5095224;28;20007;-72
2022/10/30 13:56:03;;;;;;;;;;;23.40;99.90;;;;;;5095103;28;19916;-72
2022/10/30 13:58:49;;;;;;;;;;;23.40;99.90;;;;;;5095082;28;19908;-72
2022/10/30 14:01:18;;;;;;;;;;;23.40;99.90;;;;;;5094854;28;19908;-71
2022/10/30 14:03:51;;;;;;;;;;;23.40;99.90;;;;;;5094792;28;19908;-71
2022/10/30 14:06:36;;;;;;;;;;;23.30;99.90;;;;;;5094785;28;19940;-71
2022/10/30 14:09:21;;;;;;;;;;;23.30;99.90;;;;;;5076512;28;19961;-72
2022/10/30 14:11:47;;;;;;;;;;;23.20;99.90;;;;;;5079620;28;19908;-71
2022/10/30 14:14:29;;;;;;;;;;;23.10;99.90;;;;;;5094744;28;20006;-72
2022/10/30 14:17:11;;;;;;;;;;;23.10;99.90;;;;;;5094682;28;19908;-72
2022/10/30 14:19:56;;;;;;;;;;;23.00;99.90;;;;;;5094621;28;19915;-72
2022/10/30 14:22:23;;;;;;;;;;;22.90;99.90;;;;;;5094450;28;19912;-72
2022/10/30 14:24:49;;;;;;;;;;;22.90;99.90;;;;;;5076352;28;19999;-71
2022/10/30 14:27:19;;;;;;;;;;;22.80;99.90;;;;;;5094538;28;20337;-71
2022/10/30 14:29:47;;;;;;;;;;;22.80;99.90;;;;;;5076405;28;19958;-72
2022/10/30 14:32:17;;;;;;;;;;;22.80;99.90;;;;;;5094425;28;19974;-71
2022/10/30 14:34:43;;;;;;;;;;;22.70;99.90;;;;;;5076215;28;19998;-72
2022/10/30 14:37:09;;;;;;;;;;;22.70;99.90;;;;;;5094425;28;19950;-72